sensor_id;sensor_type;location;lat;lon;timestamp;P1;durP1;ratioP1;P2;durP2;ratioP2
18503;SDS011;9381;54.244;10.074;2024-03-17T00:04:39;15.27;;;6.67;;
18503;SDS011;9381;54.244;10.074;2024-03-17T00:09:39;20.03;;;4.00;;
18503;SDS011;9381;54.244;10.074;2024-03-17T00:14:41;18.40;;;3.70;;
18503;SDS011;9381;54.244;10.074;2024-03-17T00:19:42;14.20;;;3.07;;
18503;SDS011;9381;54.244;10.074;2024-03-17T00:24:43;18.63;;;4.17;;
18503;SDS011;9381;54.244;10.074;2024-03-17T00:29:44;11.93;;;3.33;;
18503;SDS011;9381;54.244;10.074;2024-03-17T00:34:45;21.00;;;3.77;;
18503;SDS011;9381;54.244;10.074;2024-03-17T00:39:45;12.13;;;3.40;;
18503;SDS011;9381;54.244;10.074;2024-03-17T00:44:45;13.02;;;2.83;;
18503;SDS011;9381;54.244;10.074;2024-03-17T00:49:46;18.10;;;2.60;;
18503;SDS011;9381;54.244;10.074;2024-03-17T00:54:46;15.43;;;2.77;;
18503;SDS011;9381;54.244;10.074;2024-03-17T00:59:48;15.40;;;2.70;;
18503;SDS011;9381;54.244;10.074;2024-03-17T01:04:48;15.90;;;2.60;;
18503;SDS011;9381;54.244;10.074;2024-03-17T01:09:48;12.10;;;2.50;;
18503;SDS011;9381;54.244;10.074;2024-03-17T01:14:49;11.27;;;2.13;;
18503;SDS011;9381;54.244;10.074;2024-03-17T01:19:49;15.60;;;2.77;;
18503;SDS011;9381;54.244;10.074;2024-03-17T01:24:51;12.23;;;3.17;;
18503;SDS011;9381;54.244;10.074;2024-03-17T01:29:51;18.25;;;3.40;;
18503;SDS011;9381;54.244;10.074;2024-03-17T01:34:52;13.13;;;2.65;;
18503;SDS011;9381;54.244;10.074;2024-03-17T01:39:52;16.57;;;3.03;;
18503;SDS011;9381;54.244;10.074;2024-03-17T01:44:52;17.90;;;2.80;;
18503;SDS011;9381;54.244;10.074;2024-03-17T01:49:53;12.30;;;2.57;;
18503;SDS011;9381;54.244;10.074;2024-03-17T01:54:54;16.67;;;3.00;;
18503;SDS011;9381;54.244;10.074;2024-03-17T01:59:55;21.23;;;3.00;;
18503;SDS011;9381;54.244;10.074;2024-03-17T02:04:57;15.63;;;3.03;;
18503;SDS011;9381;54.244;10.074;2024-03-17T02:09:58;17.23;;;2.93;;
18503;SDS011;9381;54.244;10.074;2024-03-17T02:14:58;13.87;;;3.10;;
18503;SDS011;9381;54.244;10.074;2024-03-17T02:19:59;9.47;;;2.77;;
18503;SDS011;9381;54.244;10.074;2024-03-17T02:25:00;13.47;;;2.87;;
18503;SDS011;9381;54.244;10.074;2024-03-17T02:30:00;10.40;;;2.50;;
18503;SDS011;9381;54.244;10.074;2024-03-17T02:35:01;11.50;;;2.57;;
18503;SDS011;9381;54.244;10.074;2024-03-17T02:40:02;16.00;;;3.33;;
18503;SDS011;9381;54.244;10.074;2024-03-17T02:45:07;13.67;;;3.03;;
18503;SDS011;9381;54.244;10.074;2024-03-17T02:50:08;12.57;;;3.00;;
18503;SDS011;9381;54.244;10.074;2024-03-17T02:55:09;16.77;;;2.60;;
18503;SDS011;9381;54.244;10.074;2024-03-17T03:00:10;17.67;;;2.77;;
18503;SDS011;9381;54.244;10.074;2024-03-17T03:05:13;10.53;;;2.27;;
18503;SDS011;9381;54.244;10.074;2024-03-17T03:10:13;8.70;;;2.43;;
18503;SDS011;9381;54.244;10.074;2024-03-17T03:15:14;17.40;;;2.70;;
18503;SDS011;9381;54.244;10.074;2024-03-17T03:20:14;14.57;;;3.13;;
18503;SDS011;9381;54.244;10.074;2024-03-17T03:25:14;11.43;;;3.07;;
18503;SDS011;9381;54.244;10.074;2024-03-17T03:30:15;9.57;;;2.90;;
18503;SDS011;9381;54.244;10.074;2024-03-17T03:35:15;10.33;;;2.63;;
18503;SDS011;9381;54.244;10.074;2024-03-17T03:40:16;20.43;;;3.03;;
18503;SDS011;9381;54.244;10.074;2024-03-17T03:45:16;18.80;;;3.60;;
18503;SDS011;9381;54.244;10.074;2024-03-17T03:50:18;16.63;;;3.20;;
18503;SDS011;9381;54.244;10.074;2024-03-17T03:55:23;12.13;;;2.47;;
18503;SDS011;9381;54.244;10.074;2024-03-17T04:00:24;10.43;;;2.40;;
18503;SDS011;9381;54.244;10.074;2024-03-17T04:05:29;10.20;;;2.47;;
18503;SDS011;9381;54.244;10.074;2024-03-17T04:10:30;10.80;;;2.37;;
18503;SDS011;9381;54.244;10.074;2024-03-17T04:15:30;13.80;;;3.13;;
18503;SDS011;9381;54.244;10.074;2024-03-17T04:20:30;10.63;;;2.57;;
18503;SDS011;9381;54.244;10.074;2024-03-17T04:25:31;17.13;;;2.47;;
18503;SDS011;9381;54.244;10.074;2024-03-17T04:30:31;15.03;;;2.47;;
18503;SDS011;9381;54.244;10.074;2024-03-17T04:35:36;12.27;;;2.80;;
18503;SDS011;9381;54.244;10.074;2024-03-17T04:40:40;12.37;;;2.43;;
18503;SDS011;9381;54.244;10.074;2024-03-17T04:45:41;10.20;;;2.50;;
18503;SDS011;9381;54.244;10.074;2024-03-17T04:50:41;17.90;;;2.63;;
18503;SDS011;9381;54.244;10.074;2024-03-17T04:55:42;15.40;;;2.63;;
18503;SDS011;9381;54.244;10.074;2024-03-17T05:00:42;11.97;;;2.47;;
18503;SDS011;9381;54.244;10.074;2024-03-17T05:05:42;11.80;;;2.22;;
18503;SDS011;9381;54.244;10.074;2024-03-17T05:10:42;17.23;;;2.63;;
18503;SDS011;9381;54.244;10.074;2024-03-17T05:15:43;14.07;;;2.70;;
18503;SDS011;9381;54.244;10.074;2024-03-17T05:20:43;14.10;;;2.60;;
18503;SDS011;9381;54.244;10.074;2024-03-17T05:25:50;14.10;;;2.77;;
18503;SDS011;9381;54.244;10.074;2024-03-17T05:30:54;14.43;;;2.73;;
18503;SDS011;9381;54.244;10.074;2024-03-17T05:35:55;15.60;;;2.40;;
18503;SDS011;9381;54.244;10.074;2024-03-17T05:40:58;12.97;;;3.03;;
18503;SDS011;9381;54.244;10.074;2024-03-17T05:46:00;12.10;;;3.03;;
18503;SDS011;9381;54.244;10.074;2024-03-17T05:51:01;11.80;;;2.20;;
18503;SDS011;9381;54.244;10.074;2024-03-17T05:56:04;6.10;;;2.27;;
18503;SDS011;9381;54.244;10.074;2024-03-17T06:01:07;10.87;;;2.90;;
18503;SDS011;9381;54.244;10.074;2024-03-17T06:06:08;13.07;;;2.63;;
18503;SDS011;9381;54.244;10.074;2024-03-17T06:11:10;7.23;;;2.10;;
18503;SDS011;9381;54.244;10.074;2024-03-17T06:16:10;6.83;;;2.00;;
18503;SDS011;9381;54.244;10.074;2024-03-17T06:21:11;7.40;;;2.10;;
18503;SDS011;9381;54.244;10.074;2024-03-17T06:26:12;24.37;;;3.37;;
18503;SDS011;9381;54.244;10.074;2024-03-17T06:31:13;11.60;;;2.93;;
18503;SDS011;9381;54.244;10.074;2024-03-17T06:36:13;15.03;;;3.03;;
18503;SDS011;9381;54.244;10.074;2024-03-17T06:41:13;17.83;;;3.50;;
18503;SDS011;9381;54.244;10.074;2024-03-17T06:46:14;13.07;;;3.00;;
18503;SDS011;9381;54.244;10.074;2024-03-17T06:51:15;11.43;;;2.70;;
18503;SDS011;9381;54.244;10.074;2024-03-17T06:56:16;12.03;;;2.70;;
18503;SDS011;9381;54.244;10.074;2024-03-17T07:01:16;16.60;;;3.97;;
18503;SDS011;9381;54.244;10.074;2024-03-17T07:06:17;13.07;;;3.20;;
18503;SDS011;9381;54.244;10.074;2024-03-17T07:11:17;10.90;;;2.83;;
18503;SDS011;9381;54.244;10.074;2024-03-17T07:16:17;10.47;;;2.40;;
18503;SDS011;9381;54.244;10.074;2024-03-17T07:21:18;12.13;;;2.70;;
18503;SDS011;9381;54.244;10.074;2024-03-17T07:26:18;9.13;;;2.50;;
18503;SDS011;9381;54.244;10.074;2024-03-17T07:31:19;10.20;;;2.27;;
18503;SDS011;9381;54.244;10.074;2024-03-17T07:36:19;13.40;;;2.03;;
18503;SDS011;9381;54.244;10.074;2024-03-17T07:41:21;11.90;;;2.87;;
18503;SDS011;9381;54.244;10.074;2024-03-17T07:46:24;7.10;;;2.00;;
18503;SDS011;9381;54.244;10.074;2024-03-17T07:51:24;7.97;;;2.00;;
18503;SDS011;9381;54.244;10.074;2024-03-17T07:56:24;6.03;;;1.73;;
18503;SDS011;9381;54.244;10.074;2024-03-17T08:01:25;6.27;;;1.70;;
18503;SDS011;9381;54.244;10.074;2024-03-17T08:06:26;3.93;;;1.60;;
18503;SDS011;9381;54.244;10.074;2024-03-17T08:11:27;9.20;;;1.87;;
18503;SDS011;9381;54.244;10.074;2024-03-17T08:16:27;6.37;;;1.60;;
18503;SDS011;9381;54.244;10.074;2024-03-17T08:21:29;3.63;;;1.53;;
18503;SDS011;9381;54.244;10.074;2024-03-17T08:26:30;7.30;;;1.40;;
18503;SDS011;9381;54.244;10.074;2024-03-17T08:31:31;5.90;;;1.60;;
18503;SDS011;9381;54.244;10.074;2024-03-17T08:36:31;4.40;;;1.70;;
18503;SDS011;9381;54.244;10.074;2024-03-17T08:41:32;10.50;;;1.87;;
18503;SDS011;9381;54.244;10.074;2024-03-17T08:46:32;2.50;;;1.23;;
18503;SDS011;9381;54.244;10.074;2024-03-17T08:51:33;5.77;;;1.40;;
18503;SDS011;9381;54.244;10.074;2024-03-17T08:56:33;5.13;;;1.47;;
18503;SDS011;9381;54.244;10.074;2024-03-17T09:01:35;4.20;;;1.47;;
18503;SDS011;9381;54.244;10.074;2024-03-17T09:06:35;6.30;;;1.73;;
18503;SDS011;9381;54.244;10.074;2024-03-17T09:11:36;6.53;;;1.52;;
18503;SDS011;9381;54.244;10.074;2024-03-17T09:16:36;4.50;;;1.50;;
18503;SDS011;9381;54.244;10.074;2024-03-17T09:21:37;5.10;;;1.53;;
18503;SDS011;9381;54.244;10.074;2024-03-17T09:26:39;5.30;;;1.40;;
18503;SDS011;9381;54.244;10.074;2024-03-17T09:31:39;7.57;;;1.93;;
18503;SDS011;9381;54.244;10.074;2024-03-17T09:36:41;8.30;;;1.70;;
18503;SDS011;9381;54.244;10.074;2024-03-17T09:41:43;5.77;;;1.60;;
18503;SDS011;9381;54.244;10.074;2024-03-17T09:46:45;6.87;;;1.60;;
18503;SDS011;9381;54.244;10.074;2024-03-17T09:51:45;5.20;;;1.60;;
18503;SDS011;9381;54.244;10.074;2024-03-17T09:56:50;5.83;;;1.63;;
18503;SDS011;9381;54.244;10.074;2024-03-17T10:01:51;10.87;;;1.67;;
18503;SDS011;9381;54.244;10.074;2024-03-17T10:06:52;5.40;;;1.73;;
18503;SDS011;9381;54.244;10.074;2024-03-17T10:11:56;7.70;;;1.80;;
18503;SDS011;9381;54.244;10.074;2024-03-17T10:16:56;8.40;;;1.90;;
18503;SDS011;9381;54.244;10.074;2024-03-17T10:22:00;3.77;;;1.83;;
18503;SDS011;9381;54.244;10.074;2024-03-17T10:27:01;5.87;;;1.70;;
18503;SDS011;9381;54.244;10.074;2024-03-17T10:32:03;3.57;;;1.47;;
18503;SDS011;9381;54.244;10.074;2024-03-17T10:42:11;3.83;;;1.30;;
18503;SDS011;9381;54.244;10.074;2024-03-17T10:47:24;3.43;;;1.27;;
18503;SDS011;9381;54.244;10.074;2024-03-17T10:52:25;3.67;;;1.37;;
18503;SDS011;9381;54.244;10.074;2024-03-17T11:02:36;2.73;;;1.40;;
18503;SDS011;9381;54.244;10.074;2024-03-17T11:07:36;4.80;;;1.40;;
18503;SDS011;9381;54.244;10.074;2024-03-17T11:17:48;4.97;;;1.63;;
18503;SDS011;9381;54.244;10.074;2024-03-17T11:22:53;3.63;;;1.53;;
18503;SDS011;9381;54.244;10.074;2024-03-17T11:27:59;8.57;;;1.63;;
18503;SDS011;9381;54.244;10.074;2024-03-17T11:33:02;3.83;;;1.90;;
18503;SDS011;9381;54.244;10.074;2024-03-17T11:38:04;2.43;;;1.57;;
18503;SDS011;9381;54.244;10.074;2024-03-17T11:43:04;4.40;;;1.70;;
18503;SDS011;9381;54.244;10.074;2024-03-17T11:48:08;5.13;;;1.70;;
18503;SDS011;9381;54.244;10.074;2024-03-17T11:53:14;2.53;;;1.43;;
18503;SDS011;9381;54.244;10.074;2024-03-17T11:58:14;3.45;;;1.50;;
18503;SDS011;9381;54.244;10.074;2024-03-17T12:03:16;3.67;;;1.40;;
18503;SDS011;9381;54.244;10.074;2024-03-17T12:08:19;5.63;;;2.27;;
18503;SDS011;9381;54.244;10.074;2024-03-17T12:13:20;3.83;;;1.23;;
18503;SDS011;9381;54.244;10.074;2024-03-17T12:18:20;2.40;;;1.42;;
18503;SDS011;9381;54.244;10.074;2024-03-17T12:23:21;5.30;;;1.60;;
18503;SDS011;9381;54.244;10.074;2024-03-17T12:28:23;4.43;;;1.70;;
18503;SDS011;9381;54.244;10.074;2024-03-17T12:33:23;3.47;;;1.30;;
18503;SDS011;9381;54.244;10.074;2024-03-17T12:38:24;3.90;;;1.30;;
18503;SDS011;9381;54.244;10.074;2024-03-17T12:43:24;3.13;;;1.20;;
18503;SDS011;9381;54.244;10.074;2024-03-17T12:48:26;3.40;;;1.40;;
18503;SDS011;9381;54.244;10.074;2024-03-17T12:53:26;2.20;;;1.00;;
18503;SDS011;9381;54.244;10.074;2024-03-17T12:58:27;2.00;;;1.10;;
18503;SDS011;9381;54.244;10.074;2024-03-17T13:03:46;4.93;;;2.73;;
18503;SDS011;9381;54.244;10.074;2024-03-17T13:08:46;2.00;;;1.17;;
18503;SDS011;9381;54.244;10.074;2024-03-17T13:13:46;3.27;;;1.03;;
18503;SDS011;9381;54.244;10.074;2024-03-17T13:18:47;2.27;;;1.20;;
18503;SDS011;9381;54.244;10.074;2024-03-17T13:23:47;4.10;;;1.20;;
18503;SDS011;9381;54.244;10.074;2024-03-17T13:28:50;3.88;;;1.42;;
18503;SDS011;9381;54.244;10.074;2024-03-17T13:33:50;2.20;;;1.20;;
18503;SDS011;9381;54.244;10.074;2024-03-17T13:38:52;3.87;;;1.40;;
18503;SDS011;9381;54.244;10.074;2024-03-17T13:43:53;2.23;;;1.23;;
18503;SDS011;9381;54.244;10.074;2024-03-17T13:48:57;2.67;;;1.30;;
18503;SDS011;9381;54.244;10.074;2024-03-17T13:54:08;3.90;;;1.63;;
18503;SDS011;9381;54.244;10.074;2024-03-17T13:59:08;3.47;;;1.40;;
18503;SDS011;9381;54.244;10.074;2024-03-17T14:04:15;3.53;;;1.63;;
18503;SDS011;9381;54.244;10.074;2024-03-17T14:09:16;3.33;;;1.57;;
18503;SDS011;9381;54.244;10.074;2024-03-17T14:14:19;3.30;;;1.30;;
18503;SDS011;9381;54.244;10.074;2024-03-17T14:19:20;3.17;;;1.53;;
18503;SDS011;9381;54.244;10.074;2024-03-17T14:24:20;3.00;;;1.23;;
18503;SDS011;9381;54.244;10.074;2024-03-17T14:29:20;2.80;;;1.37;;
18503;SDS011;9381;54.244;10.074;2024-03-17T14:34:21;2.63;;;1.40;;
18503;SDS011;9381;54.244;10.074;2024-03-17T14:39:21;2.60;;;1.30;;
18503;SDS011;9381;54.244;10.074;2024-03-17T14:44:22;3.27;;;1.30;;
18503;SDS011;9381;54.244;10.074;2024-03-17T14:49:22;3.27;;;1.37;;
18503;SDS011;9381;54.244;10.074;2024-03-17T14:54:23;2.43;;;1.30;;
18503;SDS011;9381;54.244;10.074;2024-03-17T14:59:23;3.90;;;1.60;;
18503;SDS011;9381;54.244;10.074;2024-03-17T15:04:23;4.40;;;1.60;;
18503;SDS011;9381;54.244;10.074;2024-03-17T15:09:27;3.63;;;1.60;;
18503;SDS011;9381;54.244;10.074;2024-03-17T15:14:27;4.20;;;1.47;;
18503;SDS011;9381;54.244;10.074;2024-03-17T15:19:27;1.80;;;1.10;;
18503;SDS011;9381;54.244;10.074;2024-03-17T15:24:28;3.17;;;1.30;;
18503;SDS011;9381;54.244;10.074;2024-03-17T15:29:29;2.63;;;1.50;;
18503;SDS011;9381;54.244;10.074;2024-03-17T15:34:30;3.73;;;1.20;;
18503;SDS011;9381;54.244;10.074;2024-03-17T15:39:33;2.30;;;1.30;;
18503;SDS011;9381;54.244;10.074;2024-03-17T15:44:33;3.07;;;1.47;;
18503;SDS011;9381;54.244;10.074;2024-03-17T15:49:34;1.87;;;1.27;;
18503;SDS011;9381;54.244;10.074;2024-03-17T15:54:34;5.30;;;1.50;;
18503;SDS011;9381;54.244;10.074;2024-03-17T15:59:35;2.40;;;1.50;;
18503;SDS011;9381;54.244;10.074;2024-03-17T16:04:35;1.70;;;1.40;;
18503;SDS011;9381;54.244;10.074;2024-03-17T16:09:35;2.10;;;1.37;;
18503;SDS011;9381;54.244;10.074;2024-03-17T16:14:36;4.00;;;1.40;;
18503;SDS011;9381;54.244;10.074;2024-03-17T16:19:38;2.97;;;1.53;;
18503;SDS011;9381;54.244;10.074;2024-03-17T16:24:40;4.83;;;1.57;;
18503;SDS011;9381;54.244;10.074;2024-03-17T16:29:42;4.50;;;1.53;;
18503;SDS011;9381;54.244;10.074;2024-03-17T16:34:43;3.87;;;1.20;;
18503;SDS011;9381;54.244;10.074;2024-03-17T16:39:44;2.73;;;1.50;;
18503;SDS011;9381;54.244;10.074;2024-03-17T16:44:54;2.63;;;1.57;;
18503;SDS011;9381;54.244;10.074;2024-03-17T16:49:59;3.20;;;1.43;;
18503;SDS011;9381;54.244;10.074;2024-03-17T16:55:05;1.40;;;1.30;;
18503;SDS011;9381;54.244;10.074;2024-03-17T17:00:06;3.33;;;1.70;;
18503;SDS011;9381;54.244;10.074;2024-03-17T17:05:13;3.40;;;1.60;;
18503;SDS011;9381;54.244;10.074;2024-03-17T17:10:14;3.77;;;1.70;;
18503;SDS011;9381;54.244;10.074;2024-03-17T17:15:18;3.63;;;1.60;;
18503;SDS011;9381;54.244;10.074;2024-03-17T17:20:19;2.50;;;1.63;;
18503;SDS011;9381;54.244;10.074;2024-03-17T17:25:19;3.90;;;3.50;;
18503;SDS011;9381;54.244;10.074;2024-03-17T17:30:22;3.30;;;3.10;;
18503;SDS011;9381;54.244;10.074;2024-03-17T17:35:24;6.87;;;4.50;;
18503;SDS011;9381;54.244;10.074;2024-03-17T17:40:24;1.83;;;1.40;;
18503;SDS011;9381;54.244;10.074;2024-03-17T17:45:25;3.10;;;1.93;;
18503;SDS011;9381;54.244;10.074;2024-03-17T17:50:26;3.80;;;2.00;;
18503;SDS011;9381;54.244;10.074;2024-03-17T17:55:28;2.50;;;1.77;;
18503;SDS011;9381;54.244;10.074;2024-03-17T18:00:29;4.00;;;1.90;;
18503;SDS011;9381;54.244;10.074;2024-03-17T18:05:29;2.38;;;2.17;;
18503;SDS011;9381;54.244;10.074;2024-03-17T18:10:30;3.70;;;2.53;;
18503;SDS011;9381;54.244;10.074;2024-03-17T18:15:30;3.60;;;2.47;;
18503;SDS011;9381;54.244;10.074;2024-03-17T18:20:34;4.37;;;3.57;;
18503;SDS011;9381;54.244;10.074;2024-03-17T18:25:34;3.40;;;2.73;;
18503;SDS011;9381;54.244;10.074;2024-03-17T18:30:35;4.63;;;3.23;;
18503;SDS011;9381;54.244;10.074;2024-03-17T18:35:36;2.93;;;2.70;;
18503;SDS011;9381;54.244;10.074;2024-03-17T18:40:36;14.67;;;5.10;;
18503;SDS011;9381;54.244;10.074;2024-03-17T18:45:36;3.23;;;2.97;;
18503;SDS011;9381;54.244;10.074;2024-03-17T18:50:37;4.47;;;2.93;;
18503;SDS011;9381;54.244;10.074;2024-03-17T18:55:37;3.50;;;2.83;;
18503;SDS011;9381;54.244;10.074;2024-03-17T19:00:37;3.00;;;2.60;;
18503;SDS011;9381;54.244;10.074;2024-03-17T19:05:39;3.63;;;2.40;;
18503;SDS011;9381;54.244;10.074;2024-03-17T19:10:49;4.67;;;2.80;;
18503;SDS011;9381;54.244;10.074;2024-03-17T19:16:07;4.10;;;3.00;;
18503;SDS011;9381;54.244;10.074;2024-03-17T19:21:13;3.30;;;2.53;;
18503;SDS011;9381;54.244;10.074;2024-03-17T19:26:15;3.93;;;2.60;;
18503;SDS011;9381;54.244;10.074;2024-03-17T19:31:19;5.13;;;2.90;;
18503;SDS011;9381;54.244;10.074;2024-03-17T19:36:19;4.43;;;2.60;;
18503;SDS011;9381;54.244;10.074;2024-03-17T19:41:20;3.33;;;2.57;;
18503;SDS011;9381;54.244;10.074;2024-03-17T19:46:20;2.50;;;2.30;;
18503;SDS011;9381;54.244;10.074;2024-03-17T19:51:23;5.23;;;2.40;;
18503;SDS011;9381;54.244;10.074;2024-03-17T19:56:30;2.43;;;2.23;;
18503;SDS011;9381;54.244;10.074;2024-03-17T20:01:31;4.80;;;2.17;;
18503;SDS011;9381;54.244;10.074;2024-03-17T20:06:31;3.77;;;2.20;;
18503;SDS011;9381;54.244;10.074;2024-03-17T20:11:32;3.83;;;2.30;;
18503;SDS011;9381;54.244;10.074;2024-03-17T20:16:33;2.88;;;2.10;;
18503;SDS011;9381;54.244;10.074;2024-03-17T20:21:37;2.40;;;2.13;;
18503;SDS011;9381;54.244;10.074;2024-03-17T20:26:38;3.50;;;2.60;;
18503;SDS011;9381;54.244;10.074;2024-03-17T20:31:39;2.20;;;2.03;;
18503;SDS011;9381;54.244;10.074;2024-03-17T20:36:41;2.97;;;2.10;;
18503;SDS011;9381;54.244;10.074;2024-03-17T20:41:42;5.17;;;2.40;;
18503;SDS011;9381;54.244;10.074;2024-03-17T20:46:43;3.20;;;2.50;;
18503;SDS011;9381;54.244;10.074;2024-03-17T20:51:43;3.13;;;2.10;;
18503;SDS011;9381;54.244;10.074;2024-03-17T20:56:44;4.40;;;2.20;;
18503;SDS011;9381;54.244;10.074;2024-03-17T21:01:44;4.70;;;2.50;;
18503;SDS011;9381;54.244;10.074;2024-03-17T21:06:45;2.40;;;2.20;;
18503;SDS011;9381;54.244;10.074;2024-03-17T21:11:45;3.47;;;2.40;;
18503;SDS011;9381;54.244;10.074;2024-03-17T21:16:47;3.10;;;2.47;;
18503;SDS011;9381;54.244;10.074;2024-03-17T21:21:48;4.40;;;2.57;;
18503;SDS011;9381;54.244;10.074;2024-03-17T21:26:49;4.30;;;2.70;;
18503;SDS011;9381;54.244;10.074;2024-03-17T21:31:49;2.47;;;2.27;;
18503;SDS011;9381;54.244;10.074;2024-03-17T21:36:49;3.97;;;2.87;;
18503;SDS011;9381;54.244;10.074;2024-03-17T21:41:50;3.90;;;2.67;;
18503;SDS011;9381;54.244;10.074;2024-03-17T21:46:51;4.67;;;2.83;;
18503;SDS011;9381;54.244;10.074;2024-03-17T21:51:55;3.43;;;3.10;;
18503;SDS011;9381;54.244;10.074;2024-03-17T21:56:55;5.43;;;3.20;;
18503;SDS011;9381;54.244;10.074;2024-03-17T22:01:55;3.33;;;3.03;;
18503;SDS011;9381;54.244;10.074;2024-03-17T22:06:56;4.80;;;3.23;;
18503;SDS011;9381;54.244;10.074;2024-03-17T22:11:58;5.77;;;3.40;;
18503;SDS011;9381;54.244;10.074;2024-03-17T22:16:59;5.43;;;3.80;;
18503;SDS011;9381;54.244;10.074;2024-03-17T22:21:59;4.73;;;3.27;;
18503;SDS011;9381;54.244;10.074;2024-03-17T22:27:00;5.07;;;3.47;;
18503;SDS011;9381;54.244;10.074;2024-03-17T22:32:02;5.40;;;3.60;;
18503;SDS011;9381;54.244;10.074;2024-03-17T22:37:04;10.17;;;3.37;;
18503;SDS011;9381;54.244;10.074;2024-03-17T22:42:05;4.93;;;3.80;;
18503;SDS011;9381;54.244;10.074;2024-03-17T22:47:05;3.60;;;3.30;;
18503;SDS011;9381;54.244;10.074;2024-03-17T22:52:06;6.50;;;3.80;;
18503;SDS011;9381;54.244;10.074;2024-03-17T22:57:07;4.57;;;3.33;;
18503;SDS011;9381;54.244;10.074;2024-03-17T23:02:07;6.15;;;3.60;;
18503;SDS011;9381;54.244;10.074;2024-03-17T23:07:08;4.37;;;3.20;;
18503;SDS011;9381;54.244;10.074;2024-03-17T23:12:08;3.77;;;2.70;;
18503;SDS011;9381;54.244;10.074;2024-03-17T23:17:10;3.17;;;2.80;;
18503;SDS011;9381;54.244;10.074;2024-03-17T23:22:10;3.28;;;2.70;;
18503;SDS011;9381;54.244;10.074;2024-03-17T23:27:12;3.30;;;3.00;;
18503;SDS011;9381;54.244;10.074;2024-03-17T23:32:12;3.57;;;2.90;;
18503;SDS011;9381;54.244;10.074;2024-03-17T23:37:12;5.82;;;2.92;;
18503;SDS011;9381;54.244;10.074;2024-03-17T23:42:13;3.55;;;2.90;;
18503;SDS011;9381;54.244;10.074;2024-03-17T23:47:14;3.10;;;2.83;;
18503;SDS011;9381;54.244;10.074;2024-03-17T23:52:14;4.13;;;3.05;;
18503;SDS011;9381;54.244;10.074;2024-03-17T23:57:15;5.00;;;2.80;;
